Aviation Digital Data Service (ADDS)

Output produced by METARs form (1857 UTC 24 June 2017)
found at http://aviationweather.gov/adds/metars/
 
METAR text: KONP 241835Z AUTO 34008KT 10SM CLR 27/11 A2999 RMK AO2
Conditions at: KONP (NEWPORT , OR, US) observed 1835 UTC 24 June 2017
Temperature: 27.0°C (81°F)
Dewpoint: 11.0°C (52°F) [RH = 37%]
Pressure (altimeter): 29.99 inches Hg (1015.7 mb)
Winds: from the NNW (340 degrees) at 9 MPH (8 knots; 4.2 m/s)
Visibility: 10 or more miles (16+ km)
Ceiling: at least 12,000 feet AGL
Clouds: sky clear below 12,000 feet AGL
Weather: automated observation with no human augmentation;
there may or may not be significant weather present at this time

METAR text: KONP 241815Z AUTO 33009KT 10SM CLR 27/12 A3000 RMK AO2
Conditions at: KONP (NEWPORT , OR, US) observed 1815 UTC 24 June 2017
Temperature: 27.0°C (81°F)
Dewpoint: 12.0°C (54°F) [RH = 39%]
Pressure (altimeter): 30.00 inches Hg (1016.0 mb)
Winds: from the NNW (330 degrees) at 10 MPH (9 knots; 4.7 m/s)
Visibility: 10 or more miles (16+ km)
Ceiling: at least 12,000 feet AGL
Clouds: sky clear below 12,000 feet AGL
Weather: automated observation with no human augmentation;
there may or may not be significant weather present at this time

METAR text: KONP 241755Z AUTO 33007KT 10SM CLR 25/10 A3000 RMK AO2
Conditions at: KONP (NEWPORT , OR, US) observed 1755 UTC 24 June 2017
Temperature: 25.0°C (77°F)
Dewpoint: 10.0°C (50°F) [RH = 39%]
Pressure (altimeter): 30.00 inches Hg (1016.0 mb)
Winds: from the NNW (330 degrees) at 8 MPH (7 knots; 3.6 m/s)
Visibility: 10 or more miles (16+ km)
Ceiling: at least 12,000 feet AGL
Clouds: sky clear below 12,000 feet AGL
Weather: automated observation with no human augmentation;
there may or may not be significant weather present at this time

METAR text: KONP 241735Z AUTO 32007KT 10SM CLR 25/10 A3000 RMK AO2
Conditions at: KONP (NEWPORT , OR, US) observed 1735 UTC 24 June 2017
Temperature: 25.0°C (77°F)
Dewpoint: 10.0°C (50°F) [RH = 39%]
Pressure (altimeter): 30.00 inches Hg (1016.0 mb)
Winds: from the NW (320 degrees) at 8 MPH (7 knots; 3.6 m/s)
Visibility: 10 or more miles (16+ km)
Ceiling: at least 12,000 feet AGL
Clouds: sky clear below 12,000 feet AGL
Weather: automated observation with no human augmentation;
there may or may not be significant weather present at this time

METAR text: KONP 241715Z AUTO 33003KT 10SM CLR 25/11 A3000 RMK AO2
Conditions at: KONP (NEWPORT , OR, US) observed 1715 UTC 24 June 2017
Temperature: 25.0°C (77°F)
Dewpoint: 11.0°C (52°F) [RH = 41%]
Pressure (altimeter): 30.00 inches Hg (1016.0 mb)
Winds: from the NNW (330 degrees) at 3 MPH (3 knots; 1.6 m/s)
Visibility: 10 or more miles (16+ km)
Ceiling: at least 12,000 feet AGL
Clouds: sky clear below 12,000 feet AGL
Weather: automated observation with no human augmentation;
there may or may not be significant weather present at this time

Forecast for: KONP (NEWPORT , OR, US)
Text: KONP 241720Z 2418/2518 07007KT P6SM SKC
Forecast period: 1800 to 2000 UTC 24 June 2017
Forecast type: FROM: standard forecast or significant change
Winds: from the ENE (70 degrees) at 8 MPH (7 knots; 3.6 m/s)
Visibility: 6 or more miles (10+ km)
Clouds: clear skies
Weather: no significant weather forecast for this period
Text: FM242000 35007KT P6SM SKC
Forecast period: 2000 UTC 24 June 2017 to 0400 UTC 25 June 2017
Forecast type: FROM: standard forecast or significant change
Winds: from the N (350 degrees) at 8 MPH (7 knots; 3.6 m/s)
Visibility: 6 or more miles (10+ km)
Clouds: clear skies
Weather: no significant weather forecast for this period
Text: FM250400 VRB04KT 5SM HZ SKC
Forecast period: 0400 to 0800 UTC 25 June 2017
Forecast type: FROM: standard forecast or significant change
Winds: variable direction winds at 5 MPH (4 knots; 2.1 m/s)
Visibility: 5 miles (8 km)
Clouds: clear skies
Weather: HZ  (haze)
Text: FM250800 15004KT 3SM BR OVC003
Forecast period: 0800 to 1500 UTC 25 June 2017
Forecast type: FROM: standard forecast or significant change
Winds: from the SSE (150 degrees) at 5 MPH (4 knots; 2.1 m/s)
Visibility: 3 miles (5 km)
Ceiling: 300 feet AGL
Clouds: overcast cloud deck at 300 feet AGL
Weather: BR  (mist)
Text: FM251500 17006KT 5SM BR SCT003 OVC006
Forecast period: 1500 to 1700 UTC 25 June 2017
Forecast type: FROM: standard forecast or significant change
Winds: from the S (170 degrees) at 7 MPH (6 knots; 3.1 m/s)
Visibility: 5 miles (8 km)
Ceiling: 600 feet AGL
Clouds: scattered clouds at 300 feet AGL
overcast cloud deck at 600 feet AGL
Weather: BR  (mist)
Text: FM251700 19007KT 6SM BR SCT006 OVC012
Forecast period: 1700 to 1800 UTC 25 June 2017
Forecast type: FROM: standard forecast or significant change
Winds: from the S (190 degrees) at 8 MPH (7 knots; 3.6 m/s)
Visibility: 6 miles (10 km)
Ceiling: 1200 feet AGL
Clouds: scattered clouds at 600 feet AGL
overcast cloud deck at 1200 feet AGL
Weather: BR  (mist)